Time;durP1;ratioP1;P1;durP2;ratioP2;P2;SDS_P1;SDS_P2;PMS_P1;PMS_P2;Temp;Humidity;BMP_temperature;BMP_pressure;BME280_temperature;BME280_humidity;BME280_pressure;Samples;Min_cycle;Max_cycle;Signal;HPM_P1;HPM_P2
2021/10/15 00:02:32;;;;;;;5.53;4.03;;;24.40;36.70;;;;;;6111597;28;80999;-73
2021/10/15 00:05:33;;;;;;;7.45;4.28;;;24.40;36.70;;;;;;6112106;28;80343;-73
2021/10/15 00:08:33;;;;;;;6.93;3.95;;;24.40;36.70;;;;;;6112375;28;80485;-73
2021/10/15 00:11:34;;;;;;;6.80;3.80;;;24.40;36.70;;;;;;6114370;28;80952;-74
2021/10/15 00:14:34;;;;;;;5.97;4.13;;;24.40;36.70;;;;;;6109478;28;82781;-74
2021/10/15 00:17:35;;;;;;;4.95;3.47;;;24.40;37.10;;;;;;6112775;28;81497;-73
2021/10/15 00:20:36;;;;;;;6.65;3.90;;;24.40;37.50;;;;;;6113115;28;80311;-74
2021/10/15 00:23:36;;;;;;;5.78;3.78;;;24.40;37.00;;;;;;6112693;28;83238;-73
2021/10/15 00:26:37;;;;;;;5.68;3.67;;;24.40;37.30;;;;;;6112369;28;80724;-74
2021/10/15 00:29:37;;;;;;;5.93;3.40;;;24.40;37.20;;;;;;6109325;28;80553;-74
2021/10/15 00:32:38;;;;;;;5.15;3.72;;;24.40;37.40;;;;;;6113152;28;80396;-74
2021/10/15 00:35:38;;;;;;;5.80;3.55;;;24.40;37.40;;;;;;6110830;28;80794;-73
2021/10/15 00:38:39;;;;;;;3.67;2.75;;;24.40;37.20;;;;;;6112697;28;80394;-73
2021/10/15 00:41:39;;;;;;;8.70;3.75;;;24.40;36.80;;;;;;6112270;28;80365;-74
2021/10/15 00:44:40;;;;;;;4.95;3.33;;;24.40;37.00;;;;;;6109431;28;80396;-74
2021/10/15 00:47:40;;;;;;;4.50;3.08;;;24.40;37.30;;;;;;6110087;28;80425;-74
2021/10/15 00:50:41;;;;;;;5.45;3.70;;;24.40;37.10;;;;;;6111999;28;80561;-74
2021/10/15 00:53:41;;;;;;;4.90;3.55;;;24.40;37.20;;;;;;6111724;28;80889;-74
2021/10/15 00:56:42;;;;;;;3.60;3.00;;;24.40;36.90;;;;;;6111839;28;80311;-74
2021/10/15 00:59:42;;;;;;;5.15;3.22;;;24.40;36.90;;;;;;6111399;28;80431;-73
2021/10/15 01:02:44;;;;;;;6.28;3.40;;;24.40;37.40;;;;;;6111098;28;82858;-73
2021/10/15 01:05:45;;;;;;;7.97;3.95;;;24.40;37.00;;;;;;6112348;28;81083;-73
2021/10/15 01:08:45;;;;;;;4.50;3.30;;;24.40;37.10;;;;;;6109401;28;80547;-74
2021/10/15 01:11:46;;;;;;;7.95;3.90;;;24.40;37.00;;;;;;6109915;28;80976;-74
2021/10/15 01:14:46;;;;;;;4.38;3.05;;;24.40;37.40;;;;;;6110350;28;80240;-73
2021/10/15 01:17:47;;;;;;;4.38;3.08;;;24.40;37.80;;;;;;6111744;28;80408;-74
2021/10/15 01:20:47;;;;;;;3.95;2.97;;;24.40;37.20;;;;;;6109344;28;80464;-73
2021/10/15 01:23:48;;;;;;;4.68;3.20;;;24.40;37.00;;;;;;6112002;28;80387;-73
2021/10/15 01:26:48;;;;;;;4.72;3.30;;;24.40;37.60;;;;;;6112367;28;81798;-74
2021/10/15 01:29:49;;;;;;;5.00;2.95;;;24.40;37.50;;;;;;6110287;28;81428;-72
2021/10/15 01:32:50;;;;;;;4.15;3.15;;;24.40;37.40;;;;;;6110503;28;80578;-74
2021/10/15 01:35:50;;;;;;;3.20;2.88;;;24.40;37.70;;;;;;6108646;28;80441;-73
2021/10/15 01:38:51;;;;;;;5.82;3.00;;;24.40;37.30;;;;;;6109864;28;80759;-75
2021/10/15 01:41:51;;;;;;;4.78;3.25;;;24.40;37.00;;;;;;6108765;28;80529;-75
2021/10/15 01:44:52;;;;;;;4.07;2.75;;;24.40;37.50;;;;;;6110450;28;80280;-74
2021/10/15 01:47:52;;;;;;;4.05;3.08;;;24.40;37.60;;;;;;6111794;28;82730;-75
2021/10/15 01:50:53;;;;;;;4.28;3.30;;;24.40;37.60;;;;;;6110326;28;80810;-75
2021/10/15 01:53:53;;;;;;;3.67;2.90;;;24.40;37.40;;;;;;6110562;28;80789;-75
2021/10/15 01:56:54;;;;;;;3.63;2.97;;;24.40;37.20;;;;;;6110597;28;81546;-74
2021/10/15 01:59:54;;;;;;;6.20;3.40;;;24.40;37.80;;;;;;6107758;28;80430;-75
2021/10/15 02:02:55;;;;;;;4.13;2.92;;;24.30;37.60;;;;;;6109685;28;82043;-73
2021/10/15 02:05:55;;;;;;;3.92;2.78;;;24.40;37.80;;;;;;6110180;28;80414;-74
2021/10/15 02:08:56;;;;;;;3.28;2.55;;;24.40;37.30;;;;;;6109988;28;80762;-72
2021/10/15 02:11:59;;;;;;;4.40;3.13;;;24.40;37.50;;;;;;6108774;28;80123;-74
2021/10/15 02:14:59;;;;;;;3.90;2.78;;;24.40;37.40;;;;;;6110436;28;80526;-74
2021/10/15 02:18:00;;;;;;;3.88;2.78;;;24.40;37.50;;;;;;6108614;28;80502;-73
2021/10/15 02:21:00;;;;;;;3.92;2.72;;;24.30;38.20;;;;;;6110615;28;80381;-74
2021/10/15 02:24:01;;;;;;;4.18;2.47;;;24.40;37.70;;;;;;6110248;28;80302;-72
2021/10/15 02:27:01;;;;;;;3.72;2.58;;;24.30;37.10;;;;;;6107898;28;83615;-72
2021/10/15 02:30:02;;;;;;;4.35;2.70;;;24.40;37.00;;;;;;6109965;28;80621;-71
2021/10/15 02:33:02;;;;;;;2.85;2.33;;;24.40;36.90;;;;;;6109972;28;82744;-73
2021/10/15 02:36:03;;;;;;;2.83;2.50;;;24.40;36.70;;;;;;6109714;28;81559;-70
2021/10/15 02:39:03;;;;;;;2.63;2.20;;;24.40;36.40;;;;;;6108674;28;80861;-73
2021/10/15 02:42:04;;;;;;;3.03;2.70;;;24.40;36.40;;;;;;6106302;28;81532;-71
2021/10/15 02:45:04;;;;;;;4.45;2.45;;;24.50;36.40;;;;;;6110831;28;80678;-71
2021/10/15 02:48:05;;;;;;;3.20;2.28;;;24.50;36.40;;;;;;6110377;28;80489;-71
2021/10/15 02:51:06;;;;;;;2.90;2.25;;;24.50;36.30;;;;;;6108765;28;81571;-70
2021/10/15 02:54:06;;;;;;;3.13;2.50;;;24.50;36.30;;;;;;6108533;28;82130;-71
2021/10/15 02:57:07;;;;;;;2.67;2.17;;;24.60;36.50;;;;;;6108983;28;81623;-71
2021/10/15 03:00:07;;;;;;;3.10;2.00;;;24.60;36.50;;;;;;6120386;28;82060;-72
2021/10/15 03:03:08;;;;;;;2.80;2.00;;;24.60;36.60;;;;;;6108365;28;80411;-70
2021/10/15 03:06:08;;;;;;;4.00;2.10;;;24.60;36.70;;;;;;6109206;28;80377;-71
2021/10/15 03:09:09;;;;;;;2.65;2.13;;;24.60;36.70;;;;;;6110413;28;80497;-71
2021/10/15 03:12:09;;;;;;;2.72;2.10;;;24.60;36.70;;;;;;6108635;28;80735;-71
2021/10/15 03:15:10;;;;;;;2.22;1.90;;;24.60;36.80;;;;;;6108311;28;81633;-71
2021/10/15 03:18:11;;;;;;;2.45;1.88;;;24.70;36.90;;;;;;6108932;28;81241;-71
2021/10/15 03:21:11;;;;;;;3.28;1.92;;;24.60;36.90;;;;;;6109396;28;81053;-67
2021/10/15 03:24:12;;;;;;;3.03;1.90;;;24.60;36.90;;;;;;6109090;28;80230;-72
2021/10/15 03:27:12;;;;;;;2.40;2.05;;;24.60;37.10;;;;;;6109802;28;80305;-72
2021/10/15 03:30:13;;;;;;;3.33;2.20;;;24.70;37.00;;;;;;6107640;28;81860;-71
2021/10/15 03:33:14;;;;;;;2.03;1.83;;;24.70;37.00;;;;;;6109325;28;80657;-71
2021/10/15 03:36:15;;;;;;;2.72;2.22;;;24.70;37.00;;;;;;6110444;28;81246;-72
2021/10/15 03:39:15;;;;;;;2.90;2.05;;;24.70;37.10;;;;;;6112586;28;80353;-70
2021/10/15 03:42:16;;;;;;;2.90;2.17;;;24.70;37.20;;;;;;6113824;28;80654;-71
2021/10/15 03:45:16;;;;;;;1.98;1.60;;;24.70;37.20;;;;;;6111181;28;80454;-70
2021/10/15 03:48:17;;;;;;;2.75;1.70;;;24.70;37.30;;;;;;6113707;28;80675;-71
2021/10/15 03:51:17;;;;;;;4.43;2.33;;;24.70;37.30;;;;;;6111819;28;80383;-72
2021/10/15 03:54:18;;;;;;;3.38;2.17;;;24.70;37.30;;;;;;6108495;28;81038;-70
2021/10/15 03:57:18;;;;;;;3.75;2.33;;;24.70;37.20;;;;;;6110244;28;80760;-72
2021/10/15 04:00:19;;;;;;;2.17;1.95;;;24.70;37.30;;;;;;6111446;28;80434;-70
2021/10/15 04:03:20;;;;;;;2.15;1.90;;;24.70;37.20;;;;;;6113557;28;81007;-71
2021/10/15 04:06:21;;;;;;;4.07;2.55;;;24.70;37.10;;;;;;6112827;28;81037;-70
2021/10/15 04:09:21;;;;;;;2.75;2.15;;;24.70;37.10;;;;;;6105979;28;80435;-67
2021/10/15 04:12:22;;;;;;;2.40;2.05;;;24.70;37.10;;;;;;6111086;28;80410;-65
2021/10/15 04:15:22;;;;;;;5.32;2.25;;;24.70;37.20;;;;;;6113202;28;80433;-64
2021/10/15 04:18:23;;;;;;;4.95;2.30;;;24.70;37.80;;;;;;6111625;28;80914;-65
2021/10/15 04:21:23;;;;;;;2.42;2.00;;;24.60;38.10;;;;;;6111498;28;80433;-70
2021/10/15 04:24:24;;;;;;;3.00;2.10;;;24.70;37.80;;;;;;6110153;28;81629;-69
2021/10/15 04:27:24;;;;;;;3.65;2.33;;;24.70;37.50;;;;;;6110914;28;80416;-70
2021/10/15 04:30:25;;;;;;;4.10;2.08;;;24.70;37.50;;;;;;6112524;28;80807;-71
2021/10/15 04:33:25;;;;;;;3.05;2.20;;;24.70;38.00;;;;;;6111042;28;80409;-70
2021/10/15 04:36:26;;;;;;;3.83;2.13;;;24.70;37.60;;;;;;6111786;28;80298;-70
2021/10/15 04:39:26;;;;;;;2.30;1.98;;;24.70;37.40;;;;;;6117151;28;81662;-70
2021/10/15 04:42:27;;;;;;;3.30;1.98;;;24.70;37.40;;;;;;6112489;28;80293;-68
2021/10/15 04:45:27;;;;;;;4.47;1.92;;;24.70;37.50;;;;;;6107313;28;80624;-71
2021/10/15 04:48:28;;;;;;;2.80;2.10;;;24.70;37.50;;;;;;6110629;28;80344;-69
2021/10/15 04:51:28;;;;;;;2.70;2.22;;;24.70;37.60;;;;;;6112330;28;80620;-70
2021/10/15 04:54:29;;;;;;;2.72;2.20;;;24.70;39.10;;;;;;6113162;28;80928;-69
2021/10/15 04:57:29;;;;;;;4.85;2.17;;;24.70;39.40;;;;;;6110344;28;80503;-70
2021/10/15 05:00:31;;;;;;;2.33;1.80;;;24.60;39.00;;;;;;6112408;28;80489;-69
2021/10/15 05:03:32;;;;;;;2.58;2.08;;;24.60;38.90;;;;;;6110956;28;81502;-68
2021/10/15 05:06:32;;;;;;;3.05;1.77;;;24.60;38.60;;;;;;6123032;28;81713;-68
2021/10/15 05:09:33;;;;;;;2.38;1.88;;;24.60;38.90;;;;;;6109172;28;83094;-70
2021/10/15 05:12:33;;;;;;;2.65;1.88;;;24.60;39.00;;;;;;6110907;28;81622;-69
2021/10/15 05:15:34;;;;;;;2.67;1.80;;;24.60;39.00;;;;;;6110205;28;81526;-70
2021/10/15 05:18:34;;;;;;;4.03;2.22;;;24.60;39.10;;;;;;6109796;28;80335;-70
2021/10/15 05:21:35;;;;;;;2.13;1.70;;;24.60;39.40;;;;;;6107634;28;82981;-70
2021/10/15 05:24:35;;;;;;;4.53;2.00;;;24.60;39.40;;;;;;6110019;28;80647;-69
2021/10/15 05:27:36;;;;;;;5.30;2.63;;;24.60;39.40;;;;;;6111608;28;81003;-68
2021/10/15 05:30:36;;;;;;;5.15;2.25;;;24.60;39.50;;;;;;6109671;28;80451;-69
2021/10/15 05:33:37;;;;;;;2.70;2.00;;;24.60;39.60;;;;;;6109614;28;80633;-69
2021/10/15 05:36:37;;;;;;;4.70;2.60;;;24.70;39.60;;;;;;6108380;28;80696;-68
2021/10/15 05:39:38;;;;;;;5.15;2.10;;;24.60;39.60;;;;;;6105599;28;81482;-68
2021/10/15 05:42:38;;;;;;;3.35;2.53;;;24.60;39.50;;;;;;6109191;28;80756;-69
2021/10/15 05:45:39;;;;;;;8.27;2.63;;;24.60;39.30;;;;;;6110489;28;80871;-71
2021/10/15 05:48:39;;;;;;;3.97;2.40;;;24.60;39.20;;;;;;6114188;28;80631;-70
2021/10/15 05:51:43;;;;;;;4.32;2.50;;;24.60;39.40;;;;;;6110364;28;80508;-72
2021/10/15 06:01:15;;;;;;;3.65;2.28;;;24.60;39.40;;;;;;6116288;28;80212;-69
2021/10/15 06:17:18;;;;;;;4.35;2.30;;;24.60;39.50;;;;;;6105010;28;87636;-71
2021/10/15 06:20:19;;;;;;;4.00;2.33;;;24.60;39.60;;;;;;6110242;28;80476;-71
2021/10/15 06:23:19;;;;;;;3.22;2.05;;;24.60;40.00;;;;;;6117084;28;81022;-73
2021/10/15 06:26:20;;;;;;;4.05;2.25;;;24.60;39.60;;;;;;6114380;28;80971;-70
2021/10/15 06:29:20;;;;;;;3.15;2.00;;;24.60;39.20;;;;;;6111709;28;80856;-73
2021/10/15 06:32:21;;;;;;;3.33;2.00;;;24.60;40.40;;;;;;6113774;28;80617;-72
2021/10/15 06:35:21;;;;;;;3.13;2.22;;;24.60;39.70;;;;;;6108495;28;80123;-71
2021/10/15 06:38:22;;;;;;;4.45;2.42;;;24.60;39.70;;;;;;6115130;28;82613;-72
2021/10/15 06:41:22;;;;;;;3.90;2.38;;;24.50;39.70;;;;;;6105371;28;80914;-72
2021/10/15 06:44:23;;;;;;;3.95;2.22;;;24.50;39.60;;;;;;6111781;28;80379;-70
2021/10/15 06:47:24;;;;;;;5.30;1.98;;;24.60;39.90;;;;;;6115881;28;81998;-70
2021/10/15 06:54:43;;;;;;;7.43;2.88;;;24.60;39.80;;;;;;6237078;27;1338109;-72
2021/10/15 06:57:43;;;;;;;6.30;2.90;;;24.60;40.10;;;;;;6250589;27;80179;-70
2021/10/15 07:00:44;;;;;;;4.03;2.40;;;24.60;39.70;;;;;;6249643;27;80223;-70
2021/10/15 07:03:44;;;;;;;7.18;3.05;;;24.60;39.90;;;;;;6265738;27;82041;-71
2021/10/15 07:06:45;;;;;;;2.05;1.85;;;24.60;40.60;;;;;;6255807;27;80596;-69
2021/10/15 07:09:45;;;;;;;6.22;2.75;;;24.60;39.90;;;;;;6265054;27;80387;-70
2021/10/15 07:12:46;;;;;;;5.00;2.75;;;24.60;40.50;;;;;;6257850;27;81415;-71
2021/10/15 07:15:47;;;;;;;4.25;2.15;;;24.50;40.60;;;;;;6252337;27;81294;-71
2021/10/15 07:18:47;;;;;;;2.60;2.35;;;24.50;39.80;;;;;;6265374;27;81625;-72
2021/10/15 07:21:48;;;;;;;2.95;2.30;;;24.50;39.80;;;;;;6257162;27;80311;-70
2021/10/15 07:24:48;;;;;;;4.88;2.63;;;24.60;39.80;;;;;;6249002;27;80752;-71
2021/10/15 07:27:49;;;;;;;4.28;2.45;;;24.60;39.80;;;;;;6247749;27;80465;-70
2021/10/15 07:30:49;;;;;;;2.60;2.30;;;24.60;40.30;;;;;;6244909;27;81693;-70
2021/10/15 07:33:50;;;;;;;3.83;2.50;;;24.60;40.50;;;;;;6246523;27;80409;-69
2021/10/15 07:36:50;;;;;;;2.97;2.47;;;24.60;40.20;;;;;;6256075;27;82167;-70
2021/10/15 07:39:51;;;;;;;2.80;2.17;;;24.60;40.30;;;;;;6276713;27;82702;-71
2021/10/15 07:42:51;;;;;;;3.80;2.55;;;24.60;40.70;;;;;;6277055;27;80412;-72
2021/10/15 07:45:52;;;;;;;5.43;2.25;;;24.60;40.70;;;;;;6277693;27;80690;-72
2021/10/15 07:48:52;;;;;;;3.08;2.13;;;24.60;40.60;;;;;;6277587;27;80929;-70
2021/10/15 07:51:53;;;;;;;4.07;2.47;;;24.70;40.60;;;;;;6276520;27;80749;-69
2021/10/15 07:54:53;;;;;;;5.57;2.40;;;24.70;39.90;;;;;;6277194;27;80492;-70
2021/10/15 07:57:54;;;;;;;3.17;2.65;;;24.60;39.80;;;;;;6276269;27;81641;-69
2021/10/15 08:00:54;;;;;;;5.13;2.65;;;24.70;39.70;;;;;;6276332;27;80918;-72
2021/10/15 08:03:56;;;;;;;4.75;2.80;;;24.70;39.20;;;;;;6267934;27;80705;-71
2021/10/15 08:06:56;;;;;;;4.22;2.45;;;24.70;39.20;;;;;;6261339;27;80427;-72
2021/10/15 08:09:57;;;;;;;5.25;2.67;;;24.70;39.00;;;;;;6257340;27;81809;-71
2021/10/15 08:12:57;;;;;;;4.40;2.50;;;24.70;39.00;;;;;;6257879;27;81909;-71
2021/10/15 08:15:58;;;;;;;3.63;2.42;;;24.70;38.70;;;;;;6258202;27;80463;-72
2021/10/15 08:18:58;;;;;;;4.35;2.28;;;24.70;38.60;;;;;;6254991;27;83160;-71
2021/10/15 08:21:59;;;;;;;3.58;2.42;;;24.70;38.50;;;;;;6257261;27;80537;-70
2021/10/15 08:24:59;;;;;;;3.05;2.38;;;24.70;38.30;;;;;;6258933;27;80833;-71
2021/10/15 08:28:00;;;;;;;3.92;2.30;;;24.70;38.20;;;;;;6255542;27;80329;-71
2021/10/15 08:31:00;;;;;;;3.30;2.20;;;24.80;38.00;;;;;;6255463;27;80713;-71
2021/10/15 08:34:07;;;;;;;3.67;2.70;;;24.80;38.30;;;;;;6254972;27;81882;-72
2021/10/15 08:37:07;;;;;;;4.22;2.63;;;24.80;38.30;;;;;;6255627;27;80524;-71
2021/10/15 08:40:08;;;;;;;3.10;2.08;;;24.80;38.50;;;;;;6258589;27;80238;-71
2021/10/15 08:43:08;;;;;;;3.67;2.33;;;24.80;38.30;;;;;;6246109;27;80640;-72
2021/10/15 08:46:09;;;;;;;3.35;2.25;;;24.80;38.40;;;;;;6253416;27;80932;-74
2021/10/15 08:49:09;;;;;;;2.30;2.10;;;24.90;38.20;;;;;;6258385;27;81411;-72
2021/10/15 08:52:10;;;;;;;2.30;2.10;;;24.90;38.40;;;;;;6258033;27;80569;-70
2021/10/15 08:55:10;;;;;;;2.50;2.00;;;24.90;38.00;;;;;;6247363;27;80424;-71
2021/10/15 08:58:11;;;;;;;2.60;2.13;;;24.90;37.80;;;;;;6242286;27;80438;-75
2021/10/15 09:01:11;;;;;;;2.17;1.98;;;24.90;38.00;;;;;;6248741;27;80052;-67
2021/10/15 09:04:16;;;;;;;5.47;2.13;;;25.00;37.90;;;;;;6256954;27;81919;-73
2021/10/15 09:07:16;;;;;;;4.38;2.00;;;25.00;37.80;;;;;;6259255;27;82623;-72
2021/10/15 09:10:19;;;;;;;2.70;2.15;;;25.00;37.60;;;;;;6253328;27;80477;-72
2021/10/15 09:13:20;;;;;;;2.22;1.83;;;25.10;37.70;;;;;;6258684;27;80689;-68
2021/10/15 09:16:21;;;;;;;2.33;2.10;;;25.10;37.40;;;;;;6250940;27;80451;-73
2021/10/15 09:19:22;;;;;;;4.00;2.17;;;25.20;37.40;;;;;;6256474;27;81158;-70
2021/10/15 09:22:23;;;;;;;2.00;1.80;;;25.20;37.30;;;;;;6259096;27;81323;-71
2021/10/15 09:25:24;;;;;;;2.85;1.85;;;25.20;37.40;;;;;;6258335;27;80819;-74
2021/10/15 09:28:26;;;;;;;2.30;1.90;;;25.20;38.20;;;;;;6255878;27;81011;-70
2021/10/15 09:31:26;;;;;;;2.13;1.98;;;25.20;37.40;;;;;;6256624;27;81605;-74
2021/10/15 09:34:27;;;;;;;2.05;1.75;;;25.20;37.30;;;;;;6252821;27;80533;-70
2021/10/15 09:37:27;;;;;;;4.53;2.28;;;25.20;37.40;;;;;;6253767;27;83350;-70
2021/10/15 09:40:29;;;;;;;4.72;2.38;;;25.30;37.90;;;;;;6253850;27;80397;-70
2021/10/15 09:43:29;;;;;;;4.05;2.47;;;25.30;38.80;;;;;;6253592;27;80481;-68
2021/10/15 09:46:30;;;;;;;5.20;2.63;;;25.30;38.10;;;;;;6257743;27;80972;-70
2021/10/15 09:49:30;;;;;;;10.60;2.70;;;25.30;38.20;;;;;;6250476;27;81400;-70
2021/10/15 09:52:34;;;;;;;6.45;2.60;;;25.40;38.40;;;;;;6242837;27;80523;-71
2021/10/15 09:55:34;;;;;;;6.57;2.65;;;25.40;38.40;;;;;;6258987;27;80240;-72
2021/10/15 09:58:35;;;;;;;4.03;2.63;;;25.40;38.40;;;;;;6257368;27;82217;-71
2021/10/15 10:01:35;;;;;;;6.93;2.85;;;25.50;38.50;;;;;;6255103;27;80203;-72
2021/10/15 10:04:36;;;;;;;7.00;2.83;;;25.50;38.50;;;;;;6251506;27;80258;-72
2021/10/15 10:07:36;;;;;;;5.88;2.83;;;25.50;38.50;;;;;;6256466;27;80575;-72
2021/10/15 10:10:37;;;;;;;3.88;2.95;;;25.60;38.40;;;;;;6254831;27;80857;-71
2021/10/15 10:13:37;;;;;;;7.90;3.67;;;25.50;38.40;;;;;;6258332;27;87077;-69
2021/10/15 10:16:38;;;;;;;6.30;3.60;;;25.60;38.60;;;;;;6249209;27;80338;-71
2021/10/15 10:19:39;;;;;;;5.60;3.60;;;25.70;38.60;;;;;;6253674;27;81344;-70
2021/10/15 10:22:39;;;;;;;5.82;3.60;;;25.60;38.40;;;;;;6255170;27;80937;-70
2021/10/15 10:25:40;;;;;;;5.82;3.80;;;25.70;37.70;;;;;;6246017;27;80418;-70
2021/10/15 10:28:41;;;;;;;6.78;5.15;;;25.70;37.80;;;;;;6252822;27;80839;-70
2021/10/15 10:31:41;;;;;;;9.55;7.10;;;25.70;38.10;;;;;;6242073;27;81029;-69
2021/10/15 10:34:42;;;;;;;12.43;9.23;;;25.70;38.40;;;;;;6252000;27;80271;-69
2021/10/15 10:37:42;;;;;;;14.68;10.77;;;25.70;38.20;;;;;;6255048;27;81972;-69
2021/10/15 10:40:43;;;;;;;15.85;9.95;;;25.70;38.50;;;;;;6242287;27;82934;-70
2021/10/15 10:43:43;;;;;;;11.48;9.60;;;25.70;37.80;;;;;;6246420;27;83075;-69
2021/10/15 10:46:44;;;;;;;16.00;11.35;;;25.80;37.90;;;;;;6258245;27;80831;-70
2021/10/15 10:49:44;;;;;;;17.80;11.07;;;25.70;38.00;;;;;;6252531;27;83596;-69
2021/10/15 10:52:45;;;;;;;15.50;10.25;;;25.70;38.10;;;;;;6251848;27;83213;-71
2021/10/15 10:55:54;;;;;;;12.23;8.30;;;25.70;38.00;;;;;;6251595;27;83012;-72
2021/10/15 10:58:55;;;;;;;12.73;8.77;;;25.70;37.90;;;;;;6270809;27;84024;-69
2021/10/15 11:01:55;;;;;;;10.60;8.07;;;25.70;38.20;;;;;;6256762;27;81463;-72
2021/10/15 11:04:56;;;;;;;11.65;7.80;;;25.70;38.30;;;;;;6238531;27;80761;-69
2021/10/15 11:07:57;;;;;;;10.60;6.95;;;25.70;38.30;;;;;;6254031;27;80398;-69
2021/10/15 11:10:57;;;;;;;8.90;6.15;;;25.70;38.30;;;;;;6255937;27;80689;-70
2021/10/15 11:13:57;;;;;;;10.23;6.30;;;25.70;38.40;;;;;;6253683;27;80342;-68
2021/10/15 11:16:58;;;;;;;9.90;6.10;;;25.70;38.30;;;;;;6251494;27;81137;-72
2021/10/15 11:19:58;;;;;;;7.72;5.60;;;25.70;38.20;;;;;;6254377;27;80331;-71
2021/10/15 11:22:59;;;;;;;6.78;5.47;;;25.80;38.30;;;;;;6254284;27;80809;-68
2021/10/15 11:26:00;;;;;;;7.22;5.72;;;25.80;38.20;;;;;;6255000;27;81469;-71
2021/10/15 11:29:00;;;;;;;8.57;4.53;;;25.80;38.20;;;;;;6254993;27;80514;-71
2021/10/15 11:32:02;;;;;;;4.88;3.60;;;25.80;37.70;;;;;;6254220;27;80762;-70
2021/10/15 11:35:03;;;;;;;5.22;3.75;;;25.80;37.90;;;;;;6255818;27;80397;-70
2021/10/15 11:38:03;;;;;;;4.43;3.47;;;25.70;37.70;;;;;;6257194;27;80547;-71
2021/10/15 11:41:06;;;;;;;8.05;3.70;;;25.80;37.90;;;;;;6258654;27;81060;-70
2021/10/15 11:44:08;;;;;;;4.32;3.40;;;25.70;37.70;;;;;;6255090;27;80512;-72
2021/10/15 11:47:08;;;;;;;6.82;3.70;;;25.80;37.80;;;;;;6259378;27;81186;-72
2021/10/15 11:50:09;;;;;;;5.28;3.17;;;25.70;37.90;;;;;;6257720;27;83054;-72
2021/10/15 11:53:09;;;;;;;7.28;3.22;;;25.70;37.70;;;;;;6257362;27;80945;-72
2021/10/15 11:56:10;;;;;;;4.75;3.42;;;25.70;37.60;;;;;;6257043;27;80492;-70
2021/10/15 11:59:10;;;;;;;3.17;2.80;;;25.70;37.70;;;;;;6258295;27;81773;-70
2021/10/15 12:02:11;;;;;;;3.13;2.83;;;25.70;37.70;;;;;;6259259;27;80274;-70
2021/10/15 12:05:11;;;;;;;4.28;2.85;;;25.80;37.70;;;;;;6257716;27;80867;-69
2021/10/15 12:08:12;;;;;;;3.83;2.95;;;25.70;37.50;;;;;;6252258;27;80689;-67
2021/10/15 12:11:12;;;;;;;5.75;3.35;;;25.70;37.50;;;;;;6251102;27;86822;-69
2021/10/15 12:14:13;;;;;;;9.70;3.20;;;25.70;37.50;;;;;;6258653;27;80386;-69
2021/10/15 12:17:13;;;;;;;3.90;2.65;;;25.70;36.90;;;;;;6255640;27;80914;-70
2021/10/15 12:20:14;;;;;;;6.93;3.15;;;25.70;37.00;;;;;;6258397;27;81256;-70
2021/10/15 12:23:14;;;;;;;3.85;2.80;;;25.60;37.00;;;;;;6250528;27;80673;-68
2021/10/15 12:26:15;;;;;;;4.63;2.90;;;25.60;37.20;;;;;;6255722;27;80536;-68
2021/10/15 12:29:15;;;;;;;5.55;2.70;;;25.60;37.60;;;;;;6257426;27;80536;-68
2021/10/15 12:32:16;;;;;;;6.82;2.95;;;25.60;37.40;;;;;;6246654;27;80638;-69
2021/10/15 12:35:17;;;;;;;3.17;2.53;;;25.50;37.30;;;;;;6258421;27;81812;-68
2021/10/15 12:38:17;;;;;;;4.15;2.60;;;25.50;37.10;;;;;;6258795;27;87508;-68
2021/10/15 12:41:18;;;;;;;4.25;2.83;;;25.50;37.30;;;;;;6260486;27;80843;-67
2021/10/15 12:44:18;;;;;;;6.45;2.60;;;25.40;36.80;;;;;;6254859;27;83628;-67
2021/10/15 12:47:19;;;;;;;4.30;2.63;;;25.40;36.70;;;;;;6255064;27;80617;-73
2021/10/15 12:50:19;;;;;;;3.38;2.50;;;25.40;36.60;;;;;;6253658;27;80689;-71
2021/10/15 12:53:20;;;;;;;2.40;2.20;;;25.30;36.00;;;;;;6251367;27;81804;-72
2021/10/15 12:56:20;;;;;;;5.47;3.42;;;25.30;36.30;;;;;;6249376;27;80625;-73
2021/10/15 12:59:21;;;;;;;5.30;3.03;;;25.30;36.10;;;;;;6254309;27;80628;-74
2021/10/15 13:02:21;;;;;;;3.90;3.05;;;25.30;36.40;;;;;;6254886;27;81080;-71
2021/10/15 13:05:22;;;;;;;4.93;2.75;;;25.30;36.50;;;;;;6254625;27;80494;-73
2021/10/15 13:08:22;;;;;;;3.00;2.67;;;25.30;36.70;;;;;;6249792;27;81611;-69
2021/10/15 13:11:23;;;;;;;2.88;2.58;;;25.30;36.70;;;;;;6255366;27;80532;-66
2021/10/15 13:14:23;;;;;;;3.35;2.65;;;25.30;36.70;;;;;;6251765;27;81993;-68
2021/10/15 13:17:24;;;;;;;4.30;2.47;;;25.30;37.40;;;;;;6254445;27;81559;-68
2021/10/15 13:20:27;;;;;;;3.03;2.33;;;25.30;37.10;;;;;;6247710;27;82064;-68
2021/10/15 13:23:28;;;;;;;6.32;2.67;;;25.30;37.50;;;;;;6255886;27;80466;-68
2021/10/15 13:26:28;;;;;;;2.97;2.25;;;25.30;37.40;;;;;;6251360;27;81558;-69
2021/10/15 13:29:29;;;;;;;2.60;2.40;;;25.20;37.30;;;;;;6254158;27;80772;-68
2021/10/15 13:32:29;;;;;;;4.22;2.90;;;25.20;37.50;;;;;;6251953;27;80492;-68
2021/10/15 13:35:30;;;;;;;2.63;2.20;;;25.20;37.40;;;;;;6254024;27;80543;-69
2021/10/15 13:38:31;;;;;;;3.15;2.40;;;25.30;37.50;;;;;;6251580;27;80657;-68
2021/10/15 13:45:30;;;;;;;5.43;2.00;;;25.30;37.10;;;;;;6254560;27;80534;-68
2021/10/15 13:51:24;;;;;;;2.65;2.15;;;25.30;36.90;;;;;;6252933;27;80432;-67
2021/10/15 13:54:25;;;;;;;4.18;2.40;;;25.30;36.90;;;;;;6252784;27;80343;-67
2021/10/15 13:57:26;;;;;;;2.30;1.90;;;25.30;36.70;;;;;;6252204;27;82050;-68
2021/10/15 14:00:34;;;;;;;5.55;2.30;;;25.30;36.50;;;;;;6252622;27;80655;-67
2021/10/15 14:06:35;;;;;;;3.33;2.40;;;25.40;36.10;;;;;;6252143;27;81600;-68
2021/10/15 14:09:35;;;;;;;2.38;2.17;;;25.40;36.10;;;;;;6253433;27;80411;-67
2021/10/15 14:12:36;;;;;;;2.78;2.30;;;25.40;36.30;;;;;;6255547;27;81623;-70
2021/10/15 14:15:36;;;;;;;2.92;2.45;;;25.30;35.80;;;;;;6247222;27;80916;-68
2021/10/15 14:18:37;;;;;;;5.45;2.50;;;25.30;35.90;;;;;;6254928;27;80407;-68
2021/10/15 14:21:40;;;;;;;2.47;2.15;;;25.30;36.00;;;;;;6255558;27;80516;-67
2021/10/15 14:24:41;;;;;;;2.92;2.50;;;25.30;35.90;;;;;;6250695;27;80986;-68
2021/10/15 14:27:41;;;;;;;4.00;2.22;;;25.30;36.00;;;;;;6256333;27;80947;-68
2021/10/15 14:30:42;;;;;;;2.67;2.35;;;25.20;35.90;;;;;;6253191;27;80808;-68
2021/10/15 14:33:43;;;;;;;3.53;2.35;;;25.20;36.00;;;;;;6253968;27;81986;-68
2021/10/15 14:36:44;;;;;;;3.22;2.55;;;25.30;36.00;;;;;;6253798;27;82039;-65
2021/10/15 14:39:44;;;;;;;3.72;2.47;;;25.30;36.30;;;;;;6257019;27;80494;-67
2021/10/15 14:42:45;;;;;;;4.15;2.35;;;25.20;35.80;;;;;;6255003;27;80962;-67
2021/10/15 14:45:45;;;;;;;4.70;2.05;;;25.20;35.80;;;;;;6249562;27;80417;-67
2021/10/15 14:48:46;;;;;;;2.60;2.28;;;25.20;35.90;;;;;;6254167;27;80832;-67
2021/10/15 14:51:47;;;;;;;4.05;2.58;;;25.20;36.10;;;;;;6254625;27;80227;-67
2021/10/15 14:54:47;;;;;;;4.13;2.20;;;25.20;36.10;;;;;;6254048;27;80989;-67
2021/10/15 14:57:48;;;;;;;2.15;2.00;;;25.30;36.20;;;;;;6254533;27;82741;-67
2021/10/15 15:00:51;;;;;;;4.20;2.38;;;25.30;36.80;;;;;;6255632;27;81111;-68
2021/10/15 15:03:52;;;;;;;2.55;2.10;;;25.30;36.50;;;;;;6254956;27;80911;-68
2021/10/15 15:06:52;;;;;;;3.03;2.45;;;25.30;36.50;;;;;;6252660;27;80531;-68
2021/10/15 15:09:53;;;;;;;2.50;2.30;;;25.30;36.50;;;;;;6252889;27;83973;-66
2021/10/15 15:12:54;;;;;;;3.25;2.22;;;25.30;36.40;;;;;;6254743;27;81205;-68
2021/10/15 15:15:54;;;;;;;2.72;2.03;;;25.20;36.30;;;;;;6258048;27;81806;-67
2021/10/15 15:18:55;;;;;;;3.40;2.33;;;25.20;36.80;;;;;;6259112;27;81261;-67
2021/10/15 15:21:56;;;;;;;4.35;2.33;;;25.10;36.70;;;;;;6257216;27;81165;-67
2021/10/15 15:24:57;;;;;;;2.75;2.20;;;25.10;36.20;;;;;;6259128;27;80389;-66
2021/10/15 15:27:57;;;;;;;2.72;2.17;;;25.10;36.50;;;;;;6258581;27;81046;-67
2021/10/15 15:30:59;;;;;;;2.78;1.98;;;25.10;36.30;;;;;;6260830;27;80635;-69
2021/10/15 15:34:00;;;;;;;2.75;2.20;;;25.10;36.40;;;;;;6257843;27;80735;-69
2021/10/15 15:37:02;;;;;;;2.75;2.40;;;25.00;36.60;;;;;;6253145;27;81214;-67
2021/10/15 15:40:02;;;;;;;5.47;2.75;;;25.00;36.60;;;;;;6253911;27;80694;-69
2021/10/15 15:43:03;;;;;;;3.17;2.33;;;25.00;37.00;;;;;;6257548;27;83820;-69
2021/10/15 15:46:04;;;;;;;4.97;2.63;;;25.00;36.90;;;;;;6259647;27;81407;-68
2021/10/15 15:49:04;;;;;;;4.63;3.05;;;25.00;36.90;;;;;;6258322;27;80666;-68
2021/10/15 15:52:05;;;;;;;6.10;3.10;;;25.00;36.80;;;;;;6257181;27;81740;-68
2021/10/15 15:55:05;;;;;;;3.78;2.63;;;24.90;37.20;;;;;;6258939;27;82233;-67
2021/10/15 15:58:06;;;;;;;4.22;3.00;;;24.90;37.20;;;;;;6255891;27;80413;-66
2021/10/15 16:01:06;;;;;;;2.95;2.40;;;24.90;38.40;;;;;;6254821;27;80596;-66
2021/10/15 16:04:07;;;;;;;3.42;2.40;;;24.90;39.20;;;;;;6254961;27;81477;-67
2021/10/15 16:07:07;;;;;;;11.35;2.95;;;24.80;39.90;;;;;;6257235;27;81919;-67
2021/10/15 16:10:08;;;;;;;3.45;2.50;;;24.80;40.80;;;;;;6256465;27;80932;-67
2021/10/15 16:13:09;;;;;;;3.90;2.65;;;24.80;41.50;;;;;;6258217;27;80839;-67